sensor_id;sensor_type;location;lat;lon;timestamp;P1;durP1;ratioP1;P2;durP2;ratioP2
24729;SDS011;12832;52.392;13.066;2023-03-21T00:01:25;1.13;;;1.02;;
24729;SDS011;12832;52.392;13.066;2023-03-21T00:04:01;1.20;;;1.10;;
24729;SDS011;12832;52.392;13.066;2023-03-21T00:06:37;0.77;;;0.77;;
24729;SDS011;12832;52.392;13.066;2023-03-21T00:09:04;1.45;;;1.27;;
24729;SDS011;12832;52.392;13.066;2023-03-21T00:11:39;1.10;;;1.00;;
24729;SDS011;12832;52.392;13.066;2023-03-21T00:14:14;1.08;;;1.05;;
24729;SDS011;12832;52.392;13.066;2023-03-21T00:16:59;1.10;;;1.00;;
24729;SDS011;12832;52.392;13.066;2023-03-21T00:19:43;1.25;;;1.15;;
24729;SDS011;12832;52.392;13.066;2023-03-21T00:22:18;1.38;;;1.27;;
24729;SDS011;12832;52.392;13.066;2023-03-21T00:24:54;1.40;;;1.30;;
24729;SDS011;12832;52.392;13.066;2023-03-21T00:27:26;1.55;;;1.45;;
24729;SDS011;12832;52.392;13.066;2023-03-21T00:30:25;1.40;;;1.25;;
24729;SDS011;12832;52.392;13.066;2023-03-21T00:32:58;1.20;;;1.10;;
24729;SDS011;12832;52.392;13.066;2023-03-21T00:35:50;1.20;;;1.10;;
24729;SDS011;12832;52.392;13.066;2023-03-21T00:38:30;1.20;;;1.10;;
24729;SDS011;12832;52.392;13.066;2023-03-21T00:41:04;1.20;;;1.10;;
24729;SDS011;12832;52.392;13.066;2023-03-21T00:43:54;1.27;;;1.17;;
24729;SDS011;12832;52.392;13.066;2023-03-21T00:46:21;1.20;;;1.10;;
24729;SDS011;12832;52.392;13.066;2023-03-21T00:49:14;1.13;;;1.08;;
24729;SDS011;12832;52.392;13.066;2023-03-21T00:51:48;1.20;;;1.10;;
24729;SDS011;12832;52.392;13.066;2023-03-21T00:54:43;1.30;;;1.20;;
24729;SDS011;12832;52.392;13.066;2023-03-21T00:57:11;1.25;;;1.15;;
24729;SDS011;12832;52.392;13.066;2023-03-21T00:59:50;1.20;;;1.10;;
24729;SDS011;12832;52.392;13.066;2023-03-21T01:02:21;1.00;;;0.90;;
24729;SDS011;12832;52.392;13.066;2023-03-21T01:04:55;1.08;;;0.98;;
24729;SDS011;12832;52.392;13.066;2023-03-21T01:07:43;1.30;;;1.20;;
24729;SDS011;12832;52.392;13.066;2023-03-21T01:10:18;0.93;;;0.90;;
24729;SDS011;12832;52.392;13.066;2023-03-21T01:12:48;1.50;;;1.08;;
24729;SDS011;12832;52.392;13.066;2023-03-21T01:15:42;1.38;;;1.20;;
24729;SDS011;12832;52.392;13.066;2023-03-21T01:18:12;1.00;;;1.00;;
24729;SDS011;12832;52.392;13.066;2023-03-21T01:20:59;1.23;;;1.13;;
24729;SDS011;12832;52.392;13.066;2023-03-21T01:23:39;0.82;;;0.82;;
24729;SDS011;12832;52.392;13.066;2023-03-21T01:26:12;0.90;;;0.90;;
24729;SDS011;12832;52.392;13.066;2023-03-21T01:28:55;1.10;;;1.00;;
24729;SDS011;12832;52.392;13.066;2023-03-21T01:31:24;1.08;;;0.98;;
24729;SDS011;12832;52.392;13.066;2023-03-21T01:33:56;1.20;;;1.10;;
24729;SDS011;12832;52.392;13.066;2023-03-21T01:36:28;1.30;;;1.20;;
24729;SDS011;12832;52.392;13.066;2023-03-21T01:38:58;0.90;;;0.90;;
24729;SDS011;12832;52.392;13.066;2023-03-21T01:41:33;0.98;;;0.98;;
24729;SDS011;12832;52.392;13.066;2023-03-21T01:44:22;0.73;;;0.73;;
24729;SDS011;12832;52.392;13.066;2023-03-21T01:46:56;1.05;;;1.00;;
24729;SDS011;12832;52.392;13.066;2023-03-21T01:49:37;1.17;;;1.08;;
24729;SDS011;12832;52.392;13.066;2023-03-21T01:52:13;1.15;;;1.05;;
24729;SDS011;12832;52.392;13.066;2023-03-21T01:55:20;1.00;;;1.00;;
24729;SDS011;12832;52.392;13.066;2023-03-21T01:57:52;1.00;;;1.00;;
24729;SDS011;12832;52.392;13.066;2023-03-21T02:00:33;1.00;;;1.00;;
24729;SDS011;12832;52.392;13.066;2023-03-21T02:03:14;1.05;;;0.95;;
24729;SDS011;12832;52.392;13.066;2023-03-21T03:27:19;0.95;;;0.95;;
24729;SDS011;12832;52.392;13.066;2023-03-21T03:30:04;1.23;;;1.13;;
24729;SDS011;12832;52.392;13.066;2023-03-21T03:32:45;0.90;;;0.90;;
24729;SDS011;12832;52.392;13.066;2023-03-21T03:35:30;0.90;;;0.90;;
24729;SDS011;12832;52.392;13.066;2023-03-21T03:38:06;0.88;;;0.80;;
24729;SDS011;12832;52.392;13.066;2023-03-21T03:40:36;0.90;;;0.90;;
24729;SDS011;12832;52.392;13.066;2023-03-21T03:43:35;0.70;;;0.70;;
24729;SDS011;12832;52.392;13.066;2023-03-21T03:49:15;0.77;;;0.77;;
24729;SDS011;12832;52.392;13.066;2023-03-21T03:52:20;0.80;;;0.80;;
24729;SDS011;12832;52.392;13.066;2023-03-21T03:55:00;0.70;;;0.70;;
24729;SDS011;12832;52.392;13.066;2023-03-21T03:57:53;0.88;;;0.77;;
24729;SDS011;12832;52.392;13.066;2023-03-21T04:00:24;0.82;;;0.70;;
24729;SDS011;12832;52.392;13.066;2023-03-21T04:03:12;0.73;;;0.60;;
24729;SDS011;12832;52.392;13.066;2023-03-21T04:05:49;0.60;;;0.60;;
24729;SDS011;12832;52.392;13.066;2023-03-21T04:08:21;0.88;;;0.88;;
24729;SDS011;12832;52.392;13.066;2023-03-21T04:10:50;0.57;;;0.57;;
24729;SDS011;12832;52.392;13.066;2023-03-21T04:13:24;0.80;;;0.70;;
24729;SDS011;12832;52.392;13.066;2023-03-21T04:16:36;0.60;;;0.60;;
24729;SDS011;12832;52.392;13.066;2023-03-21T04:19:12;0.70;;;0.70;;
24729;SDS011;12832;52.392;13.066;2023-03-21T04:21:44;0.55;;;0.55;;
24729;SDS011;12832;52.392;13.066;2023-03-21T04:24:13;0.70;;;0.70;;
24729;SDS011;12832;52.392;13.066;2023-03-21T04:26:44;0.63;;;0.63;;
24729;SDS011;12832;52.392;13.066;2023-03-21T04:29:14;0.75;;;0.75;;
24729;SDS011;12832;52.392;13.066;2023-03-21T04:31:47;1.20;;;0.85;;
24729;SDS011;12832;52.392;13.066;2023-03-21T04:34:17;0.50;;;0.50;;
24729;SDS011;12832;52.392;13.066;2023-03-21T04:36:53;0.50;;;0.50;;
24729;SDS011;12832;52.392;13.066;2023-03-21T04:39:30;0.60;;;0.60;;
24729;SDS011;12832;52.392;13.066;2023-03-21T04:42:08;0.70;;;0.70;;
24729;SDS011;12832;52.392;13.066;2023-03-21T04:44:56;0.57;;;0.57;;
24729;SDS011;12832;52.392;13.066;2023-03-21T04:47:29;0.50;;;0.50;;
24729;SDS011;12832;52.392;13.066;2023-03-21T04:50:06;0.65;;;0.60;;
24729;SDS011;12832;52.392;13.066;2023-03-21T04:52:40;0.50;;;0.50;;
24729;SDS011;12832;52.392;13.066;2023-03-21T04:55:13;0.52;;;0.52;;
24729;SDS011;12832;52.392;13.066;2023-03-21T04:57:41;1.05;;;0.50;;
24729;SDS011;12832;52.392;13.066;2023-03-21T05:00:07;10.10;;;0.90;;
24729;SDS011;12832;52.392;13.066;2023-03-21T05:02:35;3.70;;;0.60;;
24729;SDS011;12832;52.392;13.066;2023-03-21T05:05:02;1.90;;;0.52;;
24729;SDS011;12832;52.392;13.066;2023-03-21T05:07:28;1.27;;;0.80;;
24729;SDS011;12832;52.392;13.066;2023-03-21T05:09:55;1.73;;;0.80;;
24729;SDS011;12832;52.392;13.066;2023-03-21T05:12:21;1.17;;;0.70;;
24729;SDS011;12832;52.392;13.066;2023-03-21T05:14:47;1.23;;;0.57;;
24729;SDS011;12832;52.392;13.066;2023-03-21T05:17:14;0.55;;;0.55;;
24729;SDS011;12832;52.392;13.066;2023-03-21T05:19:47;0.50;;;0.45;;
24729;SDS011;12832;52.392;13.066;2023-03-21T05:22:15;2.08;;;0.55;;
24729;SDS011;12832;52.392;13.066;2023-03-21T05:24:43;0.63;;;0.40;;
24729;SDS011;12832;52.392;13.066;2023-03-21T05:27:17;0.95;;;0.50;;
24729;SDS011;12832;52.392;13.066;2023-03-21T05:30:00;2.17;;;0.77;;
24729;SDS011;12832;52.392;13.066;2023-03-21T05:32:33;0.50;;;0.50;;
24729;SDS011;12832;52.392;13.066;2023-03-21T05:35:00;0.50;;;0.50;;
24729;SDS011;12832;52.392;13.066;2023-03-21T05:37:26;1.45;;;0.60;;
24729;SDS011;12832;52.392;13.066;2023-03-21T05:39:53;0.30;;;0.30;;
24729;SDS011;12832;52.392;13.066;2023-03-21T05:42:19;0.30;;;0.30;;
24729;SDS011;12832;52.392;13.066;2023-03-21T05:44:46;0.63;;;0.40;;
24729;SDS011;12832;52.392;13.066;2023-03-21T05:47:13;0.38;;;0.38;;
24729;SDS011;12832;52.392;13.066;2023-03-21T05:49:40;0.40;;;0.30;;
24729;SDS011;12832;52.392;13.066;2023-03-21T05:52:09;0.35;;;0.35;;
24729;SDS011;12832;52.392;13.066;2023-03-21T05:54:55;0.40;;;0.30;;
24729;SDS011;12832;52.392;13.066;2023-03-21T05:57:28;2.13;;;0.40;;
24729;SDS011;12832;52.392;13.066;2023-03-21T05:59:57;0.55;;;0.40;;
24729;SDS011;12832;52.392;13.066;2023-03-21T06:02:26;0.65;;;0.57;;
24729;SDS011;12832;52.392;13.066;2023-03-21T06:05:03;0.50;;;0.50;;
24729;SDS011;12832;52.392;13.066;2023-03-21T06:07:31;0.60;;;0.60;;
24729;SDS011;12832;52.392;13.066;2023-03-21T06:10:14;1.20;;;1.00;;
24729;SDS011;12832;52.392;13.066;2023-03-21T06:12:46;1.08;;;1.02;;
24729;SDS011;12832;52.392;13.066;2023-03-21T06:15:12;1.33;;;1.23;;
24729;SDS011;12832;52.392;13.066;2023-03-21T06:17:40;1.88;;;1.35;;
24729;SDS011;12832;52.392;13.066;2023-03-21T06:20:06;1.40;;;1.27;;
24729;SDS011;12832;52.392;13.066;2023-03-21T06:22:33;1.85;;;1.35;;
24729;SDS011;12832;52.392;13.066;2023-03-21T06:25:03;2.55;;;1.80;;
24729;SDS011;12832;52.392;13.066;2023-03-21T06:27:47;1.52;;;1.42;;
24729;SDS011;12832;52.392;13.066;2023-03-21T06:30:37;2.05;;;1.55;;
24729;SDS011;12832;52.392;13.066;2023-03-21T06:33:08;1.67;;;1.42;;
24729;SDS011;12832;52.392;13.066;2023-03-21T06:35:55;2.28;;;1.38;;
24729;SDS011;12832;52.392;13.066;2023-03-21T06:38:24;1.50;;;1.40;;
24729;SDS011;12832;52.392;13.066;2023-03-21T06:40:57;1.73;;;1.50;;
24729;SDS011;12832;52.392;13.066;2023-03-21T06:43:31;1.33;;;1.20;;
24729;SDS011;12832;52.392;13.066;2023-03-21T06:46:04;3.00;;;1.73;;
24729;SDS011;12832;52.392;13.066;2023-03-21T06:48:35;1.52;;;1.30;;
24729;SDS011;12832;52.392;13.066;2023-03-21T06:51:15;3.30;;;2.10;;
24729;SDS011;12832;52.392;13.066;2023-03-21T06:53:54;1.67;;;1.58;;
24729;SDS011;12832;52.392;13.066;2023-03-21T06:56:35;2.30;;;1.40;;
24729;SDS011;12832;52.392;13.066;2023-03-21T06:59:15;2.35;;;1.63;;
24729;SDS011;12832;52.392;13.066;2023-03-21T07:01:47;2.45;;;1.73;;
24729;SDS011;12832;52.392;13.066;2023-03-21T07:04:20;3.03;;;1.88;;
24729;SDS011;12832;52.392;13.066;2023-03-21T07:09:56;2.55;;;1.50;;
24729;SDS011;12832;52.392;13.066;2023-03-21T07:12:32;2.30;;;1.58;;
24729;SDS011;12832;52.392;13.066;2023-03-21T07:15:02;1.95;;;1.35;;
24729;SDS011;12832;52.392;13.066;2023-03-21T07:17:30;1.98;;;1.38;;
24729;SDS011;12832;52.392;13.066;2023-03-21T07:20:00;1.63;;;1.40;;
24729;SDS011;12832;52.392;13.066;2023-03-21T07:22:26;2.28;;;1.42;;
24729;SDS011;12832;52.392;13.066;2023-03-21T07:24:54;1.83;;;1.30;;
24729;SDS011;12832;52.392;13.066;2023-03-21T07:27:31;1.52;;;1.42;;
24729;SDS011;12832;52.392;13.066;2023-03-21T07:30:12;1.58;;;1.38;;
24729;SDS011;12832;52.392;13.066;2023-03-21T07:32:56;1.42;;;1.10;;
24729;SDS011;12832;52.392;13.066;2023-03-21T07:35:25;1.38;;;1.27;;
24729;SDS011;12832;52.392;13.066;2023-03-21T07:37:53;1.42;;;1.30;;
24729;SDS011;12832;52.392;13.066;2023-03-21T07:40:20;1.20;;;1.10;;
24729;SDS011;12832;52.392;13.066;2023-03-21T07:42:52;2.05;;;1.33;;
24729;SDS011;12832;52.392;13.066;2023-03-21T07:45:21;4.85;;;1.88;;
24729;SDS011;12832;52.392;13.066;2023-03-21T07:48:05;1.92;;;1.50;;
24729;SDS011;12832;52.392;13.066;2023-03-21T07:50:32;5.13;;;4.45;;
24729;SDS011;12832;52.392;13.066;2023-03-21T07:52:59;7.10;;;4.32;;
24729;SDS011;12832;52.392;13.066;2023-03-21T07:55:26;7.38;;;4.35;;
24729;SDS011;12832;52.392;13.066;2023-03-21T07:57:53;5.30;;;4.80;;
24729;SDS011;12832;52.392;13.066;2023-03-21T08:00:19;6.20;;;5.20;;
24729;SDS011;12832;52.392;13.066;2023-03-21T08:02:50;4.95;;;4.45;;
24729;SDS011;12832;52.392;13.066;2023-03-21T08:05:24;4.72;;;3.88;;
24729;SDS011;12832;52.392;13.066;2023-03-21T08:07:52;5.30;;;4.80;;
24729;SDS011;12832;52.392;13.066;2023-03-21T08:10:18;8.55;;;5.78;;
24729;SDS011;12832;52.392;13.066;2023-03-21T08:12:45;4.68;;;4.30;;
24729;SDS011;12832;52.392;13.066;2023-03-21T08:15:11;2.22;;;1.92;;
24729;SDS011;12832;52.392;13.066;2023-03-21T08:17:39;2.47;;;2.25;;
24729;SDS011;12832;52.392;13.066;2023-03-21T08:20:06;4.03;;;1.65;;
24729;SDS011;12832;52.392;13.066;2023-03-21T08:22:35;1.50;;;1.40;;
24729;SDS011;12832;52.392;13.066;2023-03-21T08:25:02;2.60;;;1.58;;
24729;SDS011;12832;52.392;13.066;2023-03-21T08:27:30;2.85;;;1.42;;
24729;SDS011;12832;52.392;13.066;2023-03-21T08:29:57;1.75;;;1.42;;
24729;SDS011;12832;52.392;13.066;2023-03-21T08:32:24;1.40;;;1.30;;
24729;SDS011;12832;52.392;13.066;2023-03-21T08:34:54;2.35;;;1.75;;
24729;SDS011;12832;52.392;13.066;2023-03-21T08:37:22;2.20;;;1.38;;
24729;SDS011;12832;52.392;13.066;2023-03-21T08:39:48;1.45;;;1.20;;
24729;SDS011;12832;52.392;13.066;2023-03-21T08:42:15;1.75;;;1.38;;
24729;SDS011;12832;52.392;13.066;2023-03-21T08:44:41;1.83;;;1.13;;
24729;SDS011;12832;52.392;13.066;2023-03-21T08:47:07;1.77;;;1.38;;
24729;SDS011;12832;52.392;13.066;2023-03-21T08:49:34;2.58;;;0.90;;
24729;SDS011;12832;52.392;13.066;2023-03-21T08:52:01;2.33;;;1.35;;
24729;SDS011;12832;52.392;13.066;2023-03-21T08:54:31;1.50;;;1.10;;
24729;SDS011;12832;52.392;13.066;2023-03-21T08:56:58;2.47;;;1.30;;
24729;SDS011;12832;52.392;13.066;2023-03-21T08:59:29;1.52;;;1.13;;
24729;SDS011;12832;52.392;13.066;2023-03-21T09:01:59;2.55;;;1.35;;
24729;SDS011;12832;52.392;13.066;2023-03-21T09:04:26;1.15;;;0.98;;
24729;SDS011;12832;52.392;13.066;2023-03-21T09:07:04;1.17;;;1.08;;
24729;SDS011;12832;52.392;13.066;2023-03-21T09:09:32;1.25;;;1.13;;
24729;SDS011;12832;52.392;13.066;2023-03-21T09:12:05;1.40;;;1.20;;
24729;SDS011;12832;52.392;13.066;2023-03-21T09:14:32;1.00;;;0.90;;
24729;SDS011;12832;52.392;13.066;2023-03-21T09:17:01;1.73;;;1.23;;
24729;SDS011;12832;52.392;13.066;2023-03-21T09:19:34;1.65;;;1.10;;
24729;SDS011;12832;52.392;13.066;2023-03-21T09:22:01;1.23;;;1.00;;
24729;SDS011;12832;52.392;13.066;2023-03-21T09:24:30;2.17;;;1.30;;
24729;SDS011;12832;52.392;13.066;2023-03-21T09:27:08;1.20;;;1.05;;
24729;SDS011;12832;52.392;13.066;2023-03-21T09:29:38;1.77;;;1.30;;
24729;SDS011;12832;52.392;13.066;2023-03-21T09:32:09;1.33;;;1.20;;
24729;SDS011;12832;52.392;13.066;2023-03-21T09:34:37;2.78;;;1.45;;
24729;SDS011;12832;52.392;13.066;2023-03-21T09:37:09;1.95;;;1.10;;
24729;SDS011;12832;52.392;13.066;2023-03-21T09:42:57;1.10;;;1.00;;
24729;SDS011;12832;52.392;13.066;2023-03-21T09:45:48;1.65;;;1.10;;
24729;SDS011;12832;52.392;13.066;2023-03-21T09:48:35;1.15;;;1.10;;
24729;SDS011;12832;52.392;13.066;2023-03-21T09:51:33;1.30;;;1.20;;
24729;SDS011;12832;52.392;13.066;2023-03-21T09:54:22;1.33;;;0.90;;
24729;SDS011;12832;52.392;13.066;2023-03-21T09:57:22;1.58;;;1.20;;
24729;SDS011;12832;52.392;13.066;2023-03-21T09:59:49;1.73;;;1.35;;
24729;SDS011;12832;52.392;13.066;2023-03-21T10:02:36;1.88;;;1.25;;
24729;SDS011;12832;52.392;13.066;2023-03-21T10:05:33;1.45;;;1.35;;
24729;SDS011;12832;52.392;13.066;2023-03-21T10:08:11;1.10;;;1.10;;
24729;SDS011;12832;52.392;13.066;2023-03-21T10:14:03;2.08;;;1.27;;
24729;SDS011;12832;52.392;13.066;2023-03-21T10:16:56;1.42;;;1.30;;
24729;SDS011;12832;52.392;13.066;2023-03-21T10:19:42;1.58;;;1.35;;
24729;SDS011;12832;52.392;13.066;2023-03-21T10:22:13;1.02;;;1.00;;
24729;SDS011;12832;52.392;13.066;2023-03-21T10:24:53;1.20;;;1.10;;
24729;SDS011;12832;52.392;13.066;2023-03-21T10:27:24;1.83;;;1.30;;
24729;SDS011;12832;52.392;13.066;2023-03-21T10:29:50;1.83;;;1.33;;
24729;SDS011;12832;52.392;13.066;2023-03-21T10:32:20;1.45;;;1.35;;
24729;SDS011;12832;52.392;13.066;2023-03-21T10:34:49;1.48;;;1.20;;
24729;SDS011;12832;52.392;13.066;2023-03-21T10:37:24;1.20;;;1.10;;
24729;SDS011;12832;52.392;13.066;2023-03-21T10:39:52;1.48;;;1.33;;
24729;SDS011;12832;52.392;13.066;2023-03-21T10:42:21;1.20;;;1.10;;
24729;SDS011;12832;52.392;13.066;2023-03-21T10:44:55;1.40;;;1.30;;
24729;SDS011;12832;52.392;13.066;2023-03-21T10:47:27;1.48;;;1.13;;
24729;SDS011;12832;52.392;13.066;2023-03-21T10:50:01;1.70;;;1.38;;
24729;SDS011;12832;52.392;13.066;2023-03-21T10:52:55;2.45;;;1.38;;
24729;SDS011;12832;52.392;13.066;2023-03-21T10:55:29;2.15;;;0.93;;
24729;SDS011;12832;52.392;13.066;2023-03-21T10:58:14;1.65;;;1.40;;
24729;SDS011;12832;52.392;13.066;2023-03-21T11:00:56;1.35;;;1.20;;
24729;SDS011;12832;52.392;13.066;2023-03-21T11:03:38;1.20;;;1.10;;
24729;SDS011;12832;52.392;13.066;2023-03-21T11:09:03;1.20;;;1.10;;
24729;SDS011;12832;52.392;13.066;2023-03-21T11:14:40;1.42;;;0.95;;
24729;SDS011;12832;52.392;13.066;2023-03-21T11:22:29;1.63;;;1.02;;
24729;SDS011;12832;52.392;13.066;2023-03-21T11:25:09;1.10;;;1.00;;
24729;SDS011;12832;52.392;13.066;2023-03-21T11:27:54;1.52;;;1.00;;
24729;SDS011;12832;52.392;13.066;2023-03-21T11:30:25;2.17;;;0.93;;
24729;SDS011;12832;52.392;13.066;2023-03-21T11:33:02;2.72;;;1.13;;
24729;SDS011;12832;52.392;13.066;2023-03-21T11:35:37;1.60;;;0.90;;
24729;SDS011;12832;52.392;13.066;2023-03-21T11:38:22;1.55;;;1.35;;
24729;SDS011;12832;52.392;13.066;2023-03-21T11:43:57;1.60;;;1.33;;
24729;SDS011;12832;52.392;13.066;2023-03-21T11:46:26;1.20;;;1.10;;
24729;SDS011;12832;52.392;13.066;2023-03-21T11:48:54;1.23;;;1.02;;
24729;SDS011;12832;52.392;13.066;2023-03-21T11:57:16;1.65;;;1.00;;
24729;SDS011;12832;52.392;13.066;2023-03-21T12:00:03;1.90;;;1.00;;
24729;SDS011;12832;52.392;13.066;2023-03-21T12:03:12;1.70;;;1.10;;
24729;SDS011;12832;52.392;13.066;2023-03-21T12:06:21;2.15;;;1.10;;
24729;SDS011;12832;52.392;13.066;2023-03-21T12:09:16;1.83;;;1.20;;
24729;SDS011;12832;52.392;13.066;2023-03-21T12:15:07;1.65;;;0.75;;
24729;SDS011;12832;52.392;13.066;2023-03-21T12:17:59;1.13;;;0.80;;
24729;SDS011;12832;52.392;13.066;2023-03-21T12:23:42;1.63;;;0.80;;
24729;SDS011;12832;52.392;13.066;2023-03-21T12:26:21;2.10;;;1.10;;
24729;SDS011;12832;52.392;13.066;2023-03-21T12:39:09;1.63;;;1.23;;
24729;SDS011;12832;52.392;13.066;2023-03-21T12:41:44;1.92;;;1.17;;
24729;SDS011;12832;52.392;13.066;2023-03-21T12:44:25;1.73;;;1.10;;
24729;SDS011;12832;52.392;13.066;2023-03-21T12:47:20;1.45;;;1.02;;
24729;SDS011;12832;52.392;13.066;2023-03-21T12:50:14;3.58;;;1.25;;
24729;SDS011;12832;52.392;13.066;2023-03-21T12:53:00;1.90;;;1.10;;
24729;SDS011;12832;52.392;13.066;2023-03-21T12:55:48;1.35;;;1.20;;
24729;SDS011;12832;52.392;13.066;2023-03-21T12:58:20;1.20;;;1.10;;
24729;SDS011;12832;52.392;13.066;2023-03-21T13:00:52;2.00;;;1.25;;
24729;SDS011;12832;52.392;13.066;2023-03-21T13:06:34;1.67;;;1.02;;
24729;SDS011;12832;52.392;13.066;2023-03-21T13:09:37;1.40;;;1.27;;
24729;SDS011;12832;52.392;13.066;2023-03-21T13:12:24;1.48;;;1.30;;
24729;SDS011;12832;52.392;13.066;2023-03-21T13:18:37;1.40;;;1.10;;
24729;SDS011;12832;52.392;13.066;2023-03-21T13:27:06;1.80;;;1.20;;
24729;SDS011;12832;52.392;13.066;2023-03-21T13:30:17;1.15;;;1.00;;
24729;SDS011;12832;52.392;13.066;2023-03-21T13:35:53;2.80;;;1.00;;
24729;SDS011;12832;52.392;13.066;2023-03-21T13:38:50;1.77;;;1.27;;
24729;SDS011;12832;52.392;13.066;2023-03-21T13:41:35;1.17;;;1.08;;
24729;SDS011;12832;52.392;13.066;2023-03-21T13:44:22;2.05;;;1.25;;
24729;SDS011;12832;52.392;13.066;2023-03-21T13:50:20;2.35;;;1.17;;
24729;SDS011;12832;52.392;13.066;2023-03-21T13:53:15;2.78;;;1.30;;
24729;SDS011;12832;52.392;13.066;2023-03-21T13:56:01;1.02;;;0.93;;
24729;SDS011;12832;52.392;13.066;2023-03-21T13:58:52;0.93;;;0.88;;
24729;SDS011;12832;52.392;13.066;2023-03-21T14:01:30;1.38;;;0.93;;
24729;SDS011;12832;52.392;13.066;2023-03-21T14:04:17;1.25;;;1.00;;
24729;SDS011;12832;52.392;13.066;2023-03-21T14:09:28;1.73;;;0.90;;
24729;SDS011;12832;52.392;13.066;2023-03-21T14:12:18;1.00;;;0.73;;
24729;SDS011;12832;52.392;13.066;2023-03-21T14:15:06;1.00;;;0.80;;
24729;SDS011;12832;52.392;13.066;2023-03-21T14:17:49;1.25;;;0.80;;
24729;SDS011;12832;52.392;13.066;2023-03-21T14:20:20;1.20;;;1.00;;
24729;SDS011;12832;52.392;13.066;2023-03-21T14:23:02;1.73;;;1.00;;
24729;SDS011;12832;52.392;13.066;2023-03-21T14:25:47;0.95;;;0.90;;
24729;SDS011;12832;52.392;13.066;2023-03-21T14:28:24;1.50;;;0.75;;
24729;SDS011;12832;52.392;13.066;2023-03-21T14:31:11;1.30;;;1.00;;
24729;SDS011;12832;52.392;13.066;2023-03-21T14:33:41;0.95;;;0.82;;
24729;SDS011;12832;52.392;13.066;2023-03-21T14:36:31;1.15;;;0.80;;
24729;SDS011;12832;52.392;13.066;2023-03-21T14:39:27;1.30;;;0.88;;
24729;SDS011;12832;52.392;13.066;2023-03-21T14:42:35;2.80;;;1.08;;
24729;SDS011;12832;52.392;13.066;2023-03-21T14:45:18;1.88;;;0.98;;
24729;SDS011;12832;52.392;13.066;2023-03-21T14:48:13;2.70;;;0.90;;
24729;SDS011;12832;52.392;13.066;2023-03-21T14:50:52;1.27;;;1.10;;
24729;SDS011;12832;52.392;13.066;2023-03-21T14:53:32;1.20;;;0.98;;
24729;SDS011;12832;52.392;13.066;2023-03-21T14:56:05;1.27;;;0.75;;
24729;SDS011;12832;52.392;13.066;2023-03-21T14:58:57;1.63;;;0.85;;
24729;SDS011;12832;52.392;13.066;2023-03-21T15:01:30;1.05;;;0.85;;
24729;SDS011;12832;52.392;13.066;2023-03-21T15:03:59;2.05;;;0.98;;
24729;SDS011;12832;52.392;13.066;2023-03-21T15:06:32;2.50;;;0.90;;
24729;SDS011;12832;52.392;13.066;2023-03-21T15:09:02;1.52;;;0.95;;
24729;SDS011;12832;52.392;13.066;2023-03-21T15:11:33;1.00;;;0.88;;
24729;SDS011;12832;52.392;13.066;2023-03-21T15:14:02;1.10;;;0.82;;
24729;SDS011;12832;52.392;13.066;2023-03-21T15:16:31;1.92;;;1.00;;
24729;SDS011;12832;52.392;13.066;2023-03-21T15:19:02;1.27;;;0.70;;
24729;SDS011;12832;52.392;13.066;2023-03-21T15:21:40;1.00;;;0.90;;
24729;SDS011;12832;52.392;13.066;2023-03-21T15:24:24;1.40;;;1.08;;
24729;SDS011;12832;52.392;13.066;2023-03-21T15:27:01;0.98;;;0.80;;
24729;SDS011;12832;52.392;13.066;2023-03-21T15:29:36;2.97;;;1.30;;
24729;SDS011;12832;52.392;13.066;2023-03-21T15:32:04;3.25;;;1.00;;
24729;SDS011;12832;52.392;13.066;2023-03-21T15:34:43;1.58;;;1.00;;
24729;SDS011;12832;52.392;13.066;2023-03-21T15:37:22;1.88;;;1.15;;
24729;SDS011;12832;52.392;13.066;2023-03-21T15:40:04;1.55;;;1.15;;
24729;SDS011;12832;52.392;13.066;2023-03-21T15:42:42;1.75;;;1.00;;
24729;SDS011;12832;52.392;13.066;2023-03-21T15:45:13;1.42;;;1.08;;
24729;SDS011;12832;52.392;13.066;2023-03-21T15:48:52;1.58;;;1.02;;
24729;SDS011;12832;52.392;13.066;2023-03-21T15:51:02;2.47;;;1.00;;
24729;SDS011;12832;52.392;13.066;2023-03-21T15:53:37;1.73;;;1.20;;
24729;SDS011;12832;52.392;13.066;2023-03-21T15:56:10;1.25;;;0.90;;
24729;SDS011;12832;52.392;13.066;2023-03-21T15:58:41;1.95;;;1.10;;
24729;SDS011;12832;52.392;13.066;2023-03-21T16:01:17;1.27;;;1.00;;
24729;SDS011;12832;52.392;13.066;2023-03-21T16:04:00;1.80;;;1.27;;
24729;SDS011;12832;52.392;13.066;2023-03-21T16:06:35;2.10;;;0.95;;
24729;SDS011;12832;52.392;13.066;2023-03-21T16:09:12;1.13;;;0.80;;
24729;SDS011;12832;52.392;13.066;2023-03-21T16:11:48;1.02;;;0.93;;
24729;SDS011;12832;52.392;13.066;2023-03-21T16:14:16;0.98;;;0.80;;
24729;SDS011;12832;52.392;13.066;2023-03-21T16:16:46;0.73;;;0.73;;
24729;SDS011;12832;52.392;13.066;2023-03-21T16:19:13;0.82;;;0.82;;
24729;SDS011;12832;52.392;13.066;2023-03-21T16:21:40;1.13;;;0.65;;
24729;SDS011;12832;52.392;13.066;2023-03-21T16:24:08;0.95;;;0.80;;
24729;SDS011;12832;52.392;13.066;2023-03-21T16:26:46;0.80;;;0.65;;
24729;SDS011;12832;52.392;13.066;2023-03-21T16:29:25;0.88;;;0.63;;
24729;SDS011;12832;52.392;13.066;2023-03-21T16:31:56;1.00;;;0.80;;
24729;SDS011;12832;52.392;13.066;2023-03-21T16:34:26;1.42;;;0.60;;
24729;SDS011;12832;52.392;13.066;2023-03-21T16:36:58;0.75;;;0.60;;
24729;SDS011;12832;52.392;13.066;2023-03-21T16:39:28;1.13;;;0.63;;
24729;SDS011;12832;52.392;13.066;2023-03-21T16:41:56;1.08;;;0.70;;
24729;SDS011;12832;52.392;13.066;2023-03-21T16:44:22;0.93;;;0.70;;
24729;SDS011;12832;52.392;13.066;2023-03-21T16:46:48;1.70;;;0.68;;
24729;SDS011;12832;52.392;13.066;2023-03-21T16:49:19;0.68;;;0.68;;
24729;SDS011;12832;52.392;13.066;2023-03-21T16:52:05;0.77;;;0.68;;
24729;SDS011;12832;52.392;13.066;2023-03-21T16:54:33;0.47;;;0.47;;
24729;SDS011;12832;52.392;13.066;2023-03-21T16:57:00;1.00;;;0.70;;
24729;SDS011;12832;52.392;13.066;2023-03-21T16:59:29;0.70;;;0.70;;
24729;SDS011;12832;52.392;13.066;2023-03-21T17:01:55;0.80;;;0.60;;
24729;SDS011;12832;52.392;13.066;2023-03-21T17:04:22;1.15;;;0.60;;
24729;SDS011;12832;52.392;13.066;2023-03-21T17:06:53;0.50;;;0.50;;
24729;SDS011;12832;52.392;13.066;2023-03-21T17:09:22;0.65;;;0.60;;
24729;SDS011;12832;52.392;13.066;2023-03-21T17:11:50;0.55;;;0.50;;
24729;SDS011;12832;52.392;13.066;2023-03-21T17:14:21;2.15;;;0.60;;
24729;SDS011;12832;52.392;13.066;2023-03-21T17:16:51;0.55;;;0.55;;
24729;SDS011;12832;52.392;13.066;2023-03-21T17:19:18;0.70;;;0.55;;
24729;SDS011;12832;52.392;13.066;2023-03-21T17:21:50;0.55;;;0.50;;
24729;SDS011;12832;52.392;13.066;2023-03-21T17:24:17;1.35;;;0.60;;
24729;SDS011;12832;52.392;13.066;2023-03-21T17:26:43;0.80;;;0.70;;
24729;SDS011;12832;52.392;13.066;2023-03-21T17:29:15;1.17;;;0.70;;
24729;SDS011;12832;52.392;13.066;2023-03-21T17:31:44;0.63;;;0.60;;
24729;SDS011;12832;52.392;13.066;2023-03-21T17:34:13;0.50;;;0.50;;
24729;SDS011;12832;52.392;13.066;2023-03-21T17:36:40;0.80;;;0.70;;
24729;SDS011;12832;52.392;13.066;2023-03-21T17:39:13;0.70;;;0.70;;
24729;SDS011;12832;52.392;13.066;2023-03-21T17:41:49;0.90;;;0.80;;
24729;SDS011;12832;52.392;13.066;2023-03-21T17:44:17;0.55;;;0.55;;
24729;SDS011;12832;52.392;13.066;2023-03-21T17:46:43;0.75;;;0.75;;
24729;SDS011;12832;52.392;13.066;2023-03-21T17:49:17;0.60;;;0.60;;
24729;SDS011;12832;52.392;13.066;2023-03-21T17:51:46;0.70;;;0.70;;
24729;SDS011;12832;52.392;13.066;2023-03-21T17:54:15;0.98;;;0.70;;
24729;SDS011;12832;52.392;13.066;2023-03-21T17:56:43;0.60;;;0.60;;